NCAR-RAP Real-Time Weather Data

Output produced by METARs form (16 August 2018  19:24 UTC)
found at http://weather.rap.ucar.edu/surface/
 
RJOI 161855Z 02014KT 9999 FEW030 BKN060 BKN250 A2985 RMK SLP106 T02500189
RJOI 161755Z 02016KT 9999 FEW030 BKN050 BKN060 26/19 A2985 RMK SLP107 60000 T02560194 10272 20256 54000
RJOI 161655Z 03012KT 9999 FEW015 BKN030 BKN060 26/21 A2985 RMK SLP107 T02610206
RJOI 161555Z 03011KT 9999 FEW015 BKN030 BKN050 27/22 A2985 RMK SLP107 T02670217
RJOI 161455Z 03010KT 9999 FEW015 BKN030 BKN045 27/23 A2985 RMK SLP107 60000 T02670228 403000250 51003
RJOI 161355Z 01008KT 9999 FEW010 BKN030 BKN045 27/23 A2985 RMK RAE02 SLP107 P0000 T02720233
RJOI 161255Z 36004KT 9999 -RA FEW010 BKN025 BKN040 27/24 A2985 RMK RAB53 SLP108 P0000 T02670244
RJOI 161155Z COR 36003KT 9999 FEW010 BKN030 BKN050 27/24 A2983 RMK SLP102 60140 70170 T02670244 10267 20250 51007
RJOI 161055Z 35004KT 9999 FEW010 BKN050 BKN080 27/24 A2983 RMK SLP100 T02670244
RJOI 160955Z 34003KT 9999 FEW015 BKN040 BKN080 27/24 A2981 RMK SLP095 T02670244
RJOI 160855Z 30005KT 9999 FEW010 SCT030 BKN050 27/24 RMK RAE15 SLP093 P0000 60140 T02670239 51007
RJOI 160755Z 00000KT 8000 RA BR FEW012 SCT030 BKN040 26/24 A2981 RMK TSE20 SLP094 P0020 T02610239
RJOI 160720Z 32004KT 4800 RA BR FEW008 SCT015 OVC040 26/24 A2980 RMK TSE20 SLP092
RJOI 160655Z 00000KT 4800 +TSRA BR FEW006 SCT010 OVC020 26/24 A2981 RMK TS OHD MOV SE SLP094 P0120 T02560239
RJOI 160555Z 35019G26KT 1600 TSRA BR SCT008 BKN012 OVC020 27/24 A2980 RMK PK WND 35026/0553 TS OHD MOV SE TSRAB10 SLP089 P0010 60020 T02670244 10300 20267 55007
RJOI 160510Z COR 13005KT 6000 -TSRA SCT020 BKN030 OVC050 25/25 A2978 RMK TSRAB10 SLP087
RJOI 160455Z 10004KT 9999 -SHRA SCT020 BKN030 BKN050 28/26 A2979 RMK SHRAB06 SLP087 P0005 T02830256
RJOI 160355Z VRB04KT 9999 SCT020 BKN030 BKN130 29/24 A2979 RMK SLP088 T02940244
RJOI 160255Z 08004KT 9999 SCT020 BKN030 BKN050 29/24 A2982 RMK SLP096 60005 T02940244 50000
RJOI 160155Z 15006KT 9999 FEW015 SCT025 BKN050 28/25 A2983 RMK SHRAE28 SLP099 P0000 T02830250
RJOI 160055Z 11004KT 9999 -SHRA FEW010 SCT015 BKN020 28/25 A2983 RMK SHRAB03 SLP100 P0005 T02780250
RJOI 152355Z 11004KT 9999 SCT015 BKN025 28/25 A2982 RMK SLP097 T02780250 10283 20267 51010
RJOI 152255Z 10004KT 9999 FEW010 BKN020 BKN090 28/25 A2981 RMK SLP093 T02780250
RJOI 152155Z 04003KT 9999 SCT015 BKN090 28/25 A2979 RMK SLP088 T02780250
RJOI 152055Z 00000KT 9999 FEW015 SCT025 BKN050 27/25 A2977 RMK SLP084 T02720250 55000
RJOI 151955Z 00000KT 9999 FEW015 BKN030 OVC050 27/25 A2977 RMK SLP082 T02720250
RJOI 151855Z 00000KT 9999 SCT010 BKN020 OVC035 27/24 A2978 RMK SLP085 T02720244
RJOI 151755Z 12003KT 9999 FEW020 BKN025 OVC045 27/25 A2979 RMK SLP086 P0001 60011 T02670250 10278 20267 57014
RJOI 151655Z 15006KT 9000 -RA BR SCT020 BKN025 OVC035 27/25 A2980 RMK SLP091 P0002 T02670250
RJOI 151555Z 13006KT 9999 FEW020 BKN25 OVC045 27/25 A2981 RMK SLP094 P0001 T02670250
RJOI 151455Z 20008KT 9999 -RA FEW020 BKN030 OVC060 27/25 A2982 RMK SLP098 P0000 60006 T2720250 403000267 50000
RJOI 151355Z 13007KT 9999 -RA FEW020 BKN030 OVC050 27/25 A2983 RMK RAB22 SLP101 P0006 T02720250
RJOI 151255Z 12007KT 9999 FEW020 BKN030 OVC040 28/25 A2983 RMK SLP101 T02780250
RJOI 151155Z 14004KT 9999 FEW008 BKN030 OVC040 28/25 A2983 RMK SLP101 60000 70007 T02780250 10283 20278 51003
RJOI 151055Z 14003KT 9999 FEW008 BKN020 OVC035 28/25 A2982 RMK SLP099 T02780250
RJOI 150955Z 00000KT 9999 FEW008 BKN020 OVC035 28/25 A2982 RMK SLP097 T02780250
RJOI 150855Z 16005KT 9999 FEW008 BKN025 BKN035 28/25 A2981 RMK SLP094 60003 T02780250 54000
RJOI 150755Z 16003KT 9999 FEW006 BKN020 BKN030 28/26 A2982 RMK SHRAE06B35E44 SLP097 P0001 T02780256
RJOI 150655Z 20004KT 9999 -SHRA FEW007 BKN020 OVC030 28/26 A2981 RMK SLP095 P0002 T02780256
RJOI 150555Z 14004KT 9999 -SHRA FEW007 BKN020 OVC030 28/25 A2982 RMK SHRAB42 SLP098 VIS LWR S P0000 60003 T02830250 10300 20272 57010
RJOI 150455Z 13005KT 9999 FEW007 BKN020 BKN030 29/25 A2983 RMK SHRAE12 SLP102 P0000 T02890250
RJOI 150355Z 12009KT 9999 -SHRA FEW008 BKN020 OVC030 28/26 A2984 RMK SHRAB36 SLP103 P0001 T02780256
RJOI 150255Z 13005KT 4800 HZ FEW008 BKN015 OVC030 28/25 A2984 RMK SFC VIS 8000 SHRAB17E49 SLP105 P0002 60002 T02830250 51003
RJOI 150227Z 11004KT 4800 -SHRA BR FEW005 BKN015 OVC030 28/25 A2985 RMK SLP101
RJOI 150155Z 12004KT 8000 HZ FEW008 BKN025 BKN045 29/24 A2985 RMK SFC VIS 9999 SLP106 T02890244
RJOI 150055Z COR 19005KT 6000 HZ FEW010 BKN030 BKN080 29/24 A2983 RMK SFC VIS 9999 SHRAE31 SLP101 P0000 T02940244
RJOI 150032Z COR 21003KT 6000 HZ FEW010 BKN030 BKN050 28/25 A2984 RMK SFC VIS 9999 SLP101
RJOI 142355Z 00000KT 6000 SHRA BR FEW010 BKN020 BKN035 27/25 A2984 RMK SFC VIS 9999 SLP104 P0017 60020 T02720250 10300 20267 51007
RJOI 142328Z 17005KT 1600 -SHRA BR FEW003 BKN015 OVC025 27/26 A2984 RMK SLP101
RJOI 142315Z 21009KT 3200 -SHRA BR FEW010 BKN030 BKN045 27/25 A2984 RMK SFC VIS 4800 SLP101
RJOI 142255Z 23004KT 9999 -SHRA FEW010 BKN030 BKN045 28/24 A2983 RMK SHRAB24 SLP102 P0000 T02830244
RJOI 142155Z 05004KT 9999 FEW010 BKN035 BKN045 28/24 A2983 RMK SHRAE15 SLP101 P0002 T02830244
RJOI 142055Z VRB04KT 9999 -SHRA FEW015 SCT030 BKN045 28/24 A2981 RMK SHRAB17E36B2052 SLP095 P0001 60001 T02780239 51010
RJOI 141955Z 02005KT 9999 FEW030 BKN050 28/23 A2981 RMK SHRAB24E1955 SLP093 P0000 T02830233
RJOI 141855Z 04011KT 9999 BKN060 29/22 A2979 RMK SLP086 T02940222
RJOI 141755Z 03010KT 9999 BKN060 29/22 A2978 RMK SLP085 T02940222 10317 20294 56007
RJOI 141655Z 03009KT 9999 FEW060 SCT075 30/22 A2979 RMK SLP086 T03000222
RJOI 141555Z 03008KT 9999 FEW040 SCT075 29/23 A2980 RMK SLP090 T02940233
RJOI 141455Z 01007KT 9999 SKC 29/24 A2980 RMK SLP092 T02940239 403390278 58007
RJOI 141355Z 03004KT 9999 FEW045 30/24 A2982 RMK SLP098 T03000239
RJOI 141255Z 02005KT 9999 FEW045 31/23 A2983 RMK SLP100 T03060233
RJOI 141155Z 00000KT 9999 BKN060 BKN075 32/23 A2983 RMK SLP101 T03170233 10339 20311 51003
RJOI 141055Z 00000KT 9999 FEW030 BKN065 BKN300 31/23 A2983 RMK SLP099 T03110233
RJOI 140955Z 20004KT 9999 FEW030 SCT080 BKN300 32/23 A2981 RMK SLP095 T03170228
RJOI 140855Z 19006KT 9999 FEW030 SCT080 BKN300 32/24 A2981 RMK SLP094 T03170244 56003
RJOI 140755Z 19007KT 9999 FEW030 BKN300 33/24 A2981 RMK SLP094 T03280244